createdAt,value
2023-03-30T00:00:23.422Z,100300.72
2023-03-30T00:02:53.927Z,100289.97
2023-03-30T00:05:23.951Z,100285.25
2023-03-30T00:07:51.174Z,100282.03
2023-03-30T00:10:19.342Z,100275.63
2023-03-30T00:12:47.780Z,100279.16
2023-03-30T00:15:16.732Z,100279.97
2023-03-30T00:17:43.787Z,100275.28
2023-03-30T00:20:12.257Z,100262.06
2023-03-30T00:22:43.792Z,100261.47
2023-03-30T00:25:13.858Z,100265.44
2023-03-30T00:27:41.848Z,100266.63
2023-03-30T00:30:11.796Z,100270.78
2023-03-30T00:32:38.723Z,100274.63
2023-03-30T00:35:06.293Z,100266.25
2023-03-30T00:37:33.534Z,100262.41
2023-03-30T00:40:00.473Z,100259.19
2023-03-30T00:42:27.280Z,100254.03
2023-03-30T00:45:12.803Z,100252.09
2023-03-30T00:47:46.535Z,100231.16
2023-03-30T00:50:14.124Z,100241.63
2023-03-30T00:52:43.389Z,100231.13
2023-03-30T00:55:11.805Z,100215.22
2023-03-30T00:57:41.667Z,100224.38
2023-03-30T01:00:11.655Z,100233.72
2023-03-30T01:02:46.259Z,100227.25
2023-03-30T01:05:13.415Z,100215.34
2023-03-30T01:07:42.142Z,100210.50
2023-03-30T01:10:12.119Z,100222.41
2023-03-30T01:12:39.793Z,100225.19
2023-03-30T01:15:10.509Z,100221.13
2023-03-30T01:17:58.128Z,100220.34
2023-03-30T01:20:28.527Z,100223.44
2023-03-30T01:23:30.153Z,100235.47
2023-03-30T01:26:41.650Z,100229.19
2023-03-30T01:29:46.976Z,100234.63
2023-03-30T01:32:30.371Z,100232.38
2023-03-30T01:35:26.736Z,100229.47
2023-03-30T01:38:17.385Z,100223.16
2023-03-30T01:40:54.968Z,100222.41
2023-03-30T01:43:35.527Z,100219.66
2023-03-30T01:46:25.291Z,100215.19
2023-03-30T01:49:40.790Z,100211.47
2023-03-30T01:52:31.920Z,100216.25
2023-03-30T01:55:09.495Z,100215.00
2023-03-30T01:57:47.881Z,100210.66
2023-03-30T02:00:19.128Z,100211.44
2023-03-30T02:03:09.032Z,100200.31
2023-03-30T02:05:37.209Z,100194.34
2023-03-30T02:08:14.445Z,100201.44
2023-03-30T02:10:43.813Z,100197.44
2023-03-30T02:13:12.023Z,100196.63
2023-03-30T02:15:53.088Z,100182.75
2023-03-30T02:18:20.415Z,100186.78
2023-03-30T02:23:17.471Z,100190.13
2023-03-30T02:25:44.878Z,100180.47
2023-03-30T02:28:11.759Z,100188.16
2023-03-30T02:30:44.029Z,100192.31
2023-03-30T02:33:33.475Z,100189.75
2023-03-30T02:36:09.993Z,100194.22
2023-03-30T02:39:14.646Z,100199.03
2023-03-30T02:42:13.680Z,100200.97
2023-03-30T02:44:53.644Z,100203.56
2023-03-30T02:47:23.671Z,100205.56
2023-03-30T02:50:09.543Z,100199.78
2023-03-30T02:53:04.350Z,100186.25
2023-03-30T02:55:39.830Z,100184.06
2023-03-30T02:58:33.221Z,100190.16
2023-03-30T03:01:16.336Z,100197.31
2023-03-30T03:04:01.994Z,100194.13
2023-03-30T03:06:34.940Z,100194.78
2023-03-30T03:09:02.033Z,100184.75
2023-03-30T03:11:32.218Z,100189.25
2023-03-30T03:14:00.506Z,100182.34
2023-03-30T03:16:29.959Z,100174.50
2023-03-30T03:19:17.222Z,100174.63
2023-03-30T03:21:47.635Z,100178.31
2023-03-30T03:24:17.476Z,100175.94
2023-03-30T03:27:16.777Z,100162.88
2023-03-30T03:30:03.268Z,100176.38
2023-03-30T03:32:35.704Z,100164.97
2023-03-30T03:35:02.642Z,100166.41
2023-03-30T03:37:31.261Z,100167.03
2023-03-30T03:39:58.192Z,100157.53
2023-03-30T03:42:25.956Z,100158.34
2023-03-30T03:45:02.928Z,100158.66
2023-03-30T03:47:31.408Z,100160.91
2023-03-30T03:49:58.910Z,100165.44
2023-03-30T03:52:25.964Z,100169.63
2023-03-30T03:54:52.761Z,100154.00
2023-03-30T03:57:19.951Z,100158.34
2023-03-30T03:59:47.256Z,100152.75
2023-03-30T04:02:14.272Z,100158.34
2023-03-30T04:04:41.639Z,100161.25
2023-03-30T04:07:10.795Z,100158.69
2023-03-30T04:09:37.776Z,100159.31
2023-03-30T04:12:18.426Z,100154.66
2023-03-30T04:15:03.972Z,100155.13
2023-03-30T04:17:50.548Z,100153.88
2023-03-30T04:20:30.202Z,100155.78
2023-03-30T04:23:10.349Z,100156.75
2023-03-30T04:26:01.739Z,100145.50
2023-03-30T04:28:57.730Z,100150.00
2023-03-30T04:32:04.131Z,100162.69
2023-03-30T04:34:54.862Z,100153.38
2023-03-30T04:37:42.381Z,100148.53
2023-03-30T04:40:38.876Z,100153.84
2023-03-30T04:43:15.137Z,100140.81
2023-03-30T04:45:42.294Z,100138.41
2023-03-30T04:48:41.270Z,100141.94
2023-03-30T04:51:31.744Z,100128.09
2023-03-30T04:54:17.567Z,100130.69
2023-03-30T04:57:19.666Z,100125.34
2023-03-30T05:00:09.368Z,100130.34
2023-03-30T05:02:36.697Z,100127.44
2023-03-30T05:05:26.651Z,100125.50
2023-03-30T05:08:19.644Z,100119.25
2023-03-30T05:11:06.830Z,100118.75
2023-03-30T05:13:59.663Z,100126.47
2023-03-30T05:16:27.157Z,100121.00
2023-03-30T05:19:29.510Z,100115.69
2023-03-30T05:22:17.116Z,100114.59
2023-03-30T05:25:10.123Z,100117.63
2023-03-30T05:27:54.630Z,100116.16
2023-03-30T05:30:38.112Z,100129.13
2023-03-30T05:33:38.107Z,100132.34
2023-03-30T05:36:30.754Z,100112.16
2023-03-30T05:39:16.607Z,100127.94
2023-03-30T05:41:59.107Z,100116.97
2023-03-30T05:44:39.428Z,100115.63
2023-03-30T05:47:25.212Z,100110.81
2023-03-30T05:50:09.530Z,100115.97
2023-03-30T05:53:12.068Z,100124.06
2023-03-30T05:55:59.813Z,100126.00
2023-03-30T05:58:53.020Z,100121.94
2023-03-30T06:01:38.757Z,100129.88
2023-03-30T06:04:06.220Z,100128.09
2023-03-30T06:06:35.133Z,100133.88
2023-03-30T06:09:04.482Z,100127.66
2023-03-30T06:11:34.234Z,100136.88
2023-03-30T06:14:17.410Z,100140.41
2023-03-30T06:16:57.370Z,100128.09
2023-03-30T06:19:27.094Z,100120.09
2023-03-30T06:21:54.551Z,100119.03
2023-03-30T06:24:27.123Z,100119.16
2023-03-30T06:26:56.046Z,100108.97
2023-03-30T06:29:23.274Z,100112.91
2023-03-30T06:31:51.420Z,100114.34
2023-03-30T06:34:38.475Z,100107.44
2023-03-30T06:37:08.537Z,100112.38
2023-03-30T06:39:37.898Z,100109.13
2023-03-30T06:42:06.698Z,100116.22
2023-03-30T06:44:50.659Z,100116.78
2023-03-30T06:47:20.108Z,100121.31
2023-03-30T06:50:03.164Z,100113.75
2023-03-30T06:52:49.133Z,100100.66
2023-03-30T06:55:17.093Z,100108.06
2023-03-30T06:57:45.170Z,100112.44
2023-03-30T07:00:13.637Z,100120.03
2023-03-30T07:03:00.337Z,100114.81
2023-03-30T07:05:33.500Z,100111.75
2023-03-30T07:08:20.331Z,100115.28
2023-03-30T07:10:53.095Z,100108.66
2023-03-30T07:13:22.354Z,100115.22
2023-03-30T07:15:52.536Z,100115.72
2023-03-30T07:18:19.986Z,100112.97
2023-03-30T07:20:46.952Z,100113.81
2023-03-30T07:23:20.080Z,100111.00
2023-03-30T07:25:48.349Z,100117.19
2023-03-30T07:28:20.576Z,100115.56
2023-03-30T07:30:47.903Z,100119.47
2023-03-30T07:33:19.006Z,100123.63
2023-03-30T07:35:47.870Z,100119.41
2023-03-30T07:38:20.362Z,100121.75
2023-03-30T07:40:51.666Z,100106.75
2023-03-30T07:43:20.346Z,100115.84
2023-03-30T07:45:47.613Z,100111.13
2023-03-30T07:48:21.912Z,100104.97
2023-03-30T07:50:49.117Z,100112.72
2023-03-30T07:53:16.223Z,100112.38
2023-03-30T07:55:45.250Z,100113.97
2023-03-30T07:58:21.217Z,100111.91
2023-03-30T08:00:48.766Z,100112.00
2023-03-30T08:03:39.394Z,100111.69
2023-03-30T08:06:06.688Z,100104.03
2023-03-30T08:08:41.114Z,100101.44
2023-03-30T08:11:11.581Z,100106.00
2023-03-30T08:13:41.274Z,100112.13
2023-03-30T08:16:09.218Z,100101.00
2023-03-30T08:18:37.235Z,100097.81
2023-03-30T08:21:05.222Z,100107.25
2023-03-30T08:23:32.289Z,100091.03
2023-03-30T08:25:59.983Z,100085.13
2023-03-30T08:28:27.133Z,100087.63
2023-03-30T08:30:54.845Z,100087.94
2023-03-30T08:33:24.231Z,100095.75
2023-03-30T08:35:51.547Z,100093.19
2023-03-30T08:38:19.183Z,100088.78
2023-03-30T08:40:47.741Z,100094.16
2023-03-30T08:43:35.203Z,100103.00
2023-03-30T08:46:03.354Z,100095.63
2023-03-30T08:48:37.471Z,100098.00
2023-03-30T08:51:18.960Z,100101.41
2023-03-30T08:53:45.815Z,100090.38
2023-03-30T08:56:21.906Z,100092.50
2023-03-30T08:59:10.430Z,100090.25
2023-03-30T09:02:22.087Z,100078.78
2023-03-30T09:05:02.107Z,100065.88
2023-03-30T09:07:50.294Z,100060.34
2023-03-30T09:10:19.851Z,100068.22
2023-03-30T09:12:50.975Z,100065.34
2023-03-30T09:15:20.412Z,100066.19
2023-03-30T09:18:10.847Z,100067.88
2023-03-30T09:20:41.362Z,100068.88
2023-03-30T09:23:18.677Z,100061.66
2023-03-30T09:25:49.360Z,100063.72
2023-03-30T09:28:26.514Z,100067.78
2023-03-30T09:31:00.663Z,100063.44
2023-03-30T09:34:04.467Z,100063.25
2023-03-30T09:36:51.746Z,100056.53
2023-03-30T09:39:24.275Z,100057.03
2023-03-30T09:42:12.878Z,100050.72
2023-03-30T09:44:56.195Z,100041.97
2023-03-30T09:47:24.914Z,100042.38
2023-03-30T09:50:04.791Z,100049.34
2023-03-30T09:52:37.222Z,100050.81
2023-03-30T09:55:22.480Z,100053.00
2023-03-30T09:57:51.125Z,100045.47
2023-03-30T10:00:32.768Z,100038.44
2023-03-30T10:03:02.933Z,100033.00
2023-03-30T10:05:31.585Z,100028.06
2023-03-30T10:08:01.486Z,100026.69
2023-03-30T10:10:34.074Z,100025.56
2023-03-30T10:13:13.495Z,100027.06
2023-03-30T10:15:44.418Z,100011.66
2023-03-30T10:18:37.434Z,100019.66
2023-03-30T10:21:05.703Z,100013.69
2023-03-30T10:23:40.259Z,100008.03
2023-03-30T10:26:16.058Z,100004.31
2023-03-30T10:28:54.224Z,100007.34
2023-03-30T10:31:23.860Z,100000.84
2023-03-30T10:34:00.135Z,99995.19
2023-03-30T10:36:32.780Z,99997.22
2023-03-30T10:39:14.271Z,99996.94
2023-03-30T10:41:42.600Z,99981.28
2023-03-30T10:44:19.019Z,99977.53
2023-03-30T10:46:46.722Z,99974.78
2023-03-30T10:49:41.114Z,99966.50
2023-03-30T10:52:17.416Z,99961.50
2023-03-30T10:54:57.371Z,99950.53
2023-03-30T10:57:52.241Z,99955.13
2023-03-30T11:00:32.944Z,99948.75
2023-03-30T11:03:15.886Z,99944.56
2023-03-30T11:05:51.419Z,99938.00
2023-03-30T11:08:34.980Z,99941.91
2023-03-30T11:11:01.623Z,99938.06
2023-03-30T11:13:40.136Z,99930.88
2023-03-30T11:16:22.000Z,99926.41
2023-03-30T11:19:09.392Z,99927.16
2023-03-30T11:22:00.525Z,99919.75
2023-03-30T11:24:28.821Z,99921.66
2023-03-30T11:27:05.386Z,99913.25
2023-03-30T11:29:49.775Z,99913.16
2023-03-30T11:32:16.716Z,99912.53
2023-03-30T11:35:05.496Z,99903.63
2023-03-30T11:38:01.810Z,99907.06
2023-03-30T11:40:44.499Z,99897.47
2023-03-30T11:43:13.376Z,99894.97
2023-03-30T11:46:04.220Z,99899.97
2023-03-30T11:48:46.862Z,99892.69
2023-03-30T11:51:22.321Z,99890.38
2023-03-30T11:53:54.516Z,99890.75
2023-03-30T11:56:47.060Z,99885.53
2023-03-30T11:59:30.672Z,99876.72
2023-03-30T12:02:21.919Z,99880.66
2023-03-30T12:04:56.880Z,99885.88
2023-03-30T12:07:57.707Z,99882.63
2023-03-30T12:10:27.157Z,99872.69
2023-03-30T12:12:55.926Z,99864.22
2023-03-30T12:15:53.879Z,99855.63
2023-03-30T12:18:42.470Z,99862.38
2023-03-30T12:21:31.083Z,99848.69
2023-03-30T12:24:17.022Z,99839.94
2023-03-30T12:26:51.790Z,99828.38
2023-03-30T12:32:29.257Z,99815.91
2023-03-30T12:34:57.913Z,99807.38
2023-03-30T12:37:33.542Z,99793.53
2023-03-30T12:40:07.617Z,99782.63
2023-03-30T12:42:39.701Z,99762.41
2023-03-30T12:45:13.984Z,99758.28
2023-03-30T12:48:10.124Z,99754.72
2023-03-30T12:51:07.231Z,99746.09
2023-03-30T12:53:55.357Z,99746.97
2023-03-30T12:56:31.483Z,99743.28
2023-03-30T12:59:27.150Z,99739.56
2023-03-30T13:01:59.416Z,99737.44
2023-03-30T13:04:32.683Z,99726.19
2023-03-30T13:07:04.108Z,99722.09
2023-03-30T13:09:55.935Z,99726.34
2023-03-30T13:12:39.631Z,99723.28
2023-03-30T13:15:31.702Z,99725.25
2023-03-30T13:18:02.935Z,99714.72
2023-03-30T13:20:57.225Z,99709.16
2023-03-30T13:23:27.138Z,99693.00
2023-03-30T13:26:21.884Z,99688.56
2023-03-30T13:29:11.464Z,99689.00
2023-03-30T13:31:47.637Z,99689.50
2023-03-30T13:34:19.230Z,99688.50
2023-03-30T13:37:01.056Z,99710.06
2023-03-30T13:39:31.130Z,99722.63
2023-03-30T13:42:20.757Z,99741.16
2023-03-30T13:45:05.567Z,99717.06
2023-03-30T13:47:50.671Z,99689.03
2023-03-30T13:50:31.238Z,99676.81
2023-03-30T13:53:10.768Z,99669.81
2023-03-30T13:55:44.228Z,99675.97
2023-03-30T13:58:23.120Z,99674.88
2023-03-30T14:00:53.980Z,99675.97
2023-03-30T14:03:38.192Z,99686.59
2023-03-30T14:06:14.289Z,99683.81
2023-03-30T14:08:45.096Z,99684.91
2023-03-30T14:11:36.060Z,99677.34
2023-03-30T14:14:04.628Z,99684.19
2023-03-30T14:16:40.607Z,99681.72
2023-03-30T14:19:26.170Z,99686.38
2023-03-30T14:22:01.951Z,99693.19
2023-03-30T14:24:37.956Z,99678.31
2023-03-30T14:27:15.827Z,99685.38
2023-03-30T14:29:47.658Z,99692.28
2023-03-30T14:32:21.327Z,99686.63
2023-03-30T14:34:52.421Z,99679.91
2023-03-30T14:37:21.524Z,99670.59
2023-03-30T14:39:53.036Z,99660.72
2023-03-30T14:42:27.802Z,99653.19
2023-03-30T14:44:57.134Z,99645.00
2023-03-30T14:47:26.763Z,99638.41
2023-03-30T14:49:57.599Z,99630.56
2023-03-30T14:52:33.937Z,99631.31
2023-03-30T14:55:06.011Z,99629.63
2023-03-30T14:57:38.810Z,99624.94
2023-03-30T15:00:18.708Z,99628.41
2023-03-30T15:02:48.939Z,99628.00
2023-03-30T15:05:18.436Z,99627.53
2023-03-30T15:08:30.559Z,99638.75
2023-03-30T15:11:01.154Z,99633.28
2023-03-30T15:13:38.106Z,99629.34
2023-03-30T15:16:06.133Z,99626.91
2023-03-30T15:18:35.095Z,99626.47
2023-03-30T15:21:02.412Z,99633.69
2023-03-30T15:23:38.212Z,99633.69
2023-03-30T15:26:07.184Z,99631.66
2023-03-30T15:28:43.293Z,99624.53
2023-03-30T15:31:13.533Z,99614.00
2023-03-30T15:33:46.773Z,99621.16
2023-03-30T15:36:17.435Z,99618.88
2023-03-30T15:38:51.710Z,99627.56
2023-03-30T15:41:22.368Z,99618.75
2023-03-30T15:44:11.964Z,99609.09
2023-03-30T15:46:40.301Z,99610.75
2023-03-30T15:49:09.655Z,99607.34
2023-03-30T15:51:42.431Z,99615.75
2023-03-30T15:54:16.786Z,99619.53
2023-03-30T15:56:54.836Z,99616.25
2023-03-30T15:59:31.335Z,99622.41
2023-03-30T16:02:03.809Z,99624.06
2023-03-30T16:04:32.301Z,99621.88
2023-03-30T16:06:59.133Z,99613.47
2023-03-30T16:09:25.936Z,99629.44
2023-03-30T16:11:52.840Z,99642.44
2023-03-30T16:14:21.147Z,99650.97
2023-03-30T16:16:48.562Z,99661.66
2023-03-30T16:19:19.733Z,99669.56
2023-03-30T16:21:46.745Z,99658.88
2023-03-30T16:24:13.587Z,99669.13
2023-03-30T16:26:40.604Z,99676.13
2023-03-30T16:29:22.036Z,99690.09
2023-03-30T16:31:50.728Z,99678.31
2023-03-30T16:34:18.224Z,99700.66
2023-03-30T16:36:45.652Z,99708.72
2023-03-30T16:39:18.476Z,99706.25
2023-03-30T16:41:45.756Z,99714.50
2023-03-30T16:44:12.686Z,99720.31
2023-03-30T16:46:42.038Z,99713.72
2023-03-30T16:49:15.285Z,99714.97
2023-03-30T16:51:42.116Z,99700.59
2023-03-30T16:54:19.517Z,99696.63
2023-03-30T16:56:54.477Z,99690.63
2023-03-30T16:59:25.581Z,99650.78
2023-03-30T17:07:01.477Z,99720.16
2023-03-30T17:09:28.458Z,99701.41
2023-03-30T17:11:55.276Z,99696.41
2023-03-30T17:14:23.398Z,99693.06
2023-03-30T17:16:50.704Z,99698.59
2023-03-30T17:19:17.588Z,99689.03
2023-03-30T17:21:46.034Z,99689.84
2023-03-30T17:24:15.268Z,99687.25
2023-03-30T17:26:42.609Z,99697.00
2023-03-30T17:29:10.542Z,99708.97
2023-03-30T17:31:38.417Z,99714.97
2023-03-30T17:34:06.772Z,99725.16
2023-03-30T17:36:33.658Z,99728.13
2023-03-30T17:39:04.704Z,99724.53
2023-03-30T17:41:33.792Z,99723.53
2023-03-30T17:44:00.841Z,99719.34
2023-03-30T17:46:28.337Z,99725.34
2023-03-30T17:48:55.333Z,99723.72
2023-03-30T17:51:22.236Z,99729.34
2023-03-30T17:53:49.222Z,99721.94
2023-03-30T17:56:15.983Z,99723.53
2023-03-30T17:58:42.779Z,99718.56
2023-03-30T18:01:12.528Z,99709.78
2023-03-30T18:03:39.726Z,99708.19
2023-03-30T18:06:07.094Z,99705.38
2023-03-30T18:08:34.301Z,99700.41
2023-03-30T18:11:05.064Z,99691.03
2023-03-30T18:13:32.414Z,99689.88
2023-03-30T18:16:06.724Z,99685.47
2023-03-30T18:18:39.253Z,99691.25
2023-03-30T18:21:06.900Z,99674.31
2023-03-30T18:23:34.724Z,99662.94
2023-03-30T18:26:03.985Z,99663.13
2023-03-30T18:28:31.687Z,99663.56
2023-03-30T18:31:00.548Z,99657.75
2023-03-30T18:33:27.705Z,99656.75
2023-03-30T18:35:56.862Z,99661.56
2023-03-30T18:38:25.846Z,99661.16
2023-03-30T18:40:58.082Z,99658.34
2023-03-30T18:43:26.737Z,99651.38
2023-03-30T18:45:54.543Z,99665.53
2023-03-30T18:48:22.118Z,99659.53
2023-03-30T18:50:54.472Z,99661.13
2023-03-30T18:53:24.020Z,99677.88
2023-03-30T18:56:00.673Z,99688.66
2023-03-30T18:58:30.541Z,99698.59
2023-03-30T19:01:00.967Z,99699.22
2023-03-30T19:03:30.212Z,99697.63
2023-03-30T19:05:57.170Z,99697.81
2023-03-30T19:08:26.094Z,99690.44
2023-03-30T19:10:57.991Z,99688.84
2023-03-30T19:13:26.698Z,99685.25
2023-03-30T19:15:54.403Z,99666.31
2023-03-30T19:18:21.740Z,99665.53
2023-03-30T19:20:50.993Z,99660.53
2023-03-30T19:23:19.152Z,99674.69
2023-03-30T19:25:46.093Z,99681.88
2023-03-30T19:28:13.291Z,99676.28
2023-03-30T19:30:40.606Z,99664.34
2023-03-30T19:33:11.108Z,99654.56
2023-03-30T19:35:41.198Z,99645.41
2023-03-30T19:38:08.370Z,99636.22
2023-03-30T19:40:36.529Z,99647.97
2023-03-30T19:43:03.503Z,99648.38
2023-03-30T19:45:31.319Z,99652.97
2023-03-30T19:47:58.129Z,99650.38
2023-03-30T19:57:56.946Z,99652.16
2023-03-30T20:00:24.606Z,99664.34
2023-03-30T20:03:01.376Z,99653.97
2023-03-30T20:06:13.405Z,99651.78
2023-03-30T20:08:47.061Z,99659.34
2023-03-30T20:11:16.617Z,99666.31
2023-03-30T20:13:46.025Z,99672.13
2023-03-30T20:16:31.549Z,99666.94
2023-03-30T20:18:58.865Z,99671.13
2023-03-30T20:21:29.233Z,99668.69
2023-03-30T20:24:00.207Z,99659.94
2023-03-30T20:26:30.591Z,99655.72
2023-03-30T20:28:57.515Z,99658.72
2023-03-30T20:31:44.640Z,99654.75
2023-03-30T20:34:13.021Z,99663.91
2023-03-30T20:36:40.555Z,99663.09
2023-03-30T20:39:34.011Z,99666.88
2023-03-30T20:42:08.389Z,99661.50
2023-03-30T20:44:45.252Z,99652.13
2023-03-30T20:47:20.036Z,99642.34
2023-03-30T20:50:00.157Z,99644.34
2023-03-30T20:52:30.166Z,99652.72
2023-03-30T20:54:57.195Z,99657.31
2023-03-30T20:57:24.858Z,99656.69
2023-03-30T20:59:59.855Z,99649.91
2023-03-30T21:02:34.799Z,99646.31
2023-03-30T21:05:13.174Z,99661.50
2023-03-30T21:10:53.718Z,99663.50
2023-03-30T21:13:20.597Z,99656.66
2023-03-30T21:15:51.754Z,99665.84
2023-03-30T21:18:22.798Z,99662.44
2023-03-30T21:20:49.674Z,99660.28
2023-03-30T21:23:16.401Z,99663.09
2023-03-30T21:25:44.301Z,99674.03
2023-03-30T21:28:12.217Z,99677.25
2023-03-30T21:30:39.425Z,99676.66
2023-03-30T21:33:06.613Z,99675.06
2023-03-30T21:35:33.543Z,99669.09
2023-03-30T21:38:01.185Z,99668.69
2023-03-30T21:40:29.586Z,99671.88
2023-03-30T21:42:56.409Z,99667.50
2023-03-30T21:45:24.626Z,99652.72
2023-03-30T21:47:51.585Z,99644.75
2023-03-30T21:50:18.464Z,99643.75
2023-03-30T21:52:45.270Z,99648.13
2023-03-30T21:55:12.030Z,99649.34
2023-03-30T21:57:39.296Z,99640.75
2023-03-30T22:00:10.138Z,99642.16
2023-03-30T22:02:59.536Z,99654.53
2023-03-30T22:05:27.114Z,99656.16
2023-03-30T22:07:53.805Z,99649.19
2023-03-30T22:10:20.539Z,99645.59
2023-03-30T22:12:47.251Z,99642.00
2023-03-30T22:15:14.051Z,99640.00
2023-03-30T22:17:45.668Z,99640.81
2023-03-30T22:20:13.057Z,99628.88
2023-03-30T22:22:43.662Z,99621.28
2023-03-30T22:25:10.781Z,99619.88
2023-03-30T22:27:37.688Z,99626.06
2023-03-30T22:30:06.006Z,99615.69
2023-03-30T22:32:33.617Z,99631.59
2023-03-30T22:35:00.442Z,99633.59
2023-03-30T22:37:27.157Z,99642.16
2023-03-30T22:39:53.883Z,99649.78
2023-03-30T22:42:20.927Z,99640.78
2023-03-30T22:44:47.947Z,99641.97
2023-03-30T22:47:14.824Z,99640.38
2023-03-30T22:49:44.436Z,99628.59
2023-03-30T22:52:11.144Z,99625.19
2023-03-30T22:54:37.891Z,99625.13
2023-03-30T22:57:04.756Z,99631.50
2023-03-30T22:59:31.599Z,99627.91
2023-03-30T23:01:58.348Z,99638.03
2023-03-30T23:04:25.311Z,99632.63
2023-03-30T23:06:52.065Z,99632.63
2023-03-30T23:09:21.692Z,99623.41
2023-03-30T23:11:48.838Z,99615.59
2023-03-30T23:14:15.741Z,99617.31
2023-03-30T23:16:44.685Z,99611.31
2023-03-30T23:19:12.180Z,99611.28
2023-03-30T23:21:39.164Z,99602.44
2023-03-30T23:24:09.972Z,99603.00
2023-03-30T23:26:36.783Z,99604.19
2023-03-30T23:29:03.853Z,99600.00
2023-03-30T23:31:30.668Z,99596.81
2023-03-30T23:33:57.770Z,99601.41
2023-03-30T23:36:25.007Z,99594.06
2023-03-30T23:38:51.992Z,99595.91
2023-03-30T23:41:20.380Z,99600.91
2023-03-30T23:43:48.003Z,99602.34
2023-03-30T23:46:15.711Z,99599.59
2023-03-30T23:48:42.639Z,99616.59
2023-03-30T23:51:09.779Z,99611.81
2023-03-30T23:53:40.389Z,99615.41
2023-03-30T23:56:12.972Z,99605.44
2023-03-30T23:58:41.652Z,99604.06
